Ana Sayfa
METAR-TAF:

METAR-TAF

Havaalanları :

Bangkok, Tayland

Enlem: 13-54-45N, Boylam: 100-36-24E, yükseklik: 4 m

Güncel hava durumu gözlemi

Rapor saat 09:30 UTC de 33 dakika önce yapıldı.
Rüzgar güneydan 9 kt, güney/güneydoğu ve güneybatı arasında değişken
Sıcaklık 35°C
Nem 56%
Basınç 1006 hPa
Görüş mesafesi 10 km veya daha fazla
3000 ft yükseklikte az bulutlu

METAR: VTBD 280930Z 19009KT 160V230 9999 FEW030 35/25 Q1006 NOSIG

Saat: 17:03 (10:03 UTC)

Tahmin

Rapor saat 05:00 UTC de 5 saat ve 3 dakika önce yapıldı.
Ayın 28'si saat 06 UTC'den ayın 29'si saat 12 UTC'ye kadar geçerli Tahmin
Rüzgar güneydan 8 kt
Görüş mesafesi: 9000 m
2000 ft yükseklikte az bulutlu

TAF: VTBD 280500Z 2806/2912 19008KT 9000 FEW020

4.000'den fazla havaalanı için hava durumu gözlemleri ve tahminleri (METAR ve TAF raporları).

Kullanılabilir istasyonlar harita üzerinde sarı ve kırmızı noktalarla gösterilir.

İstasyonun adını görmek için fareyi noktanın üzerinde gezdirin.

Sonrasında hava gözlem ve tahminlerini görmek için tıklayın.

Haritayı değiştirmek için: yaklaştırmak için siyah artı işaretli yeşil düğmeye ve uzaklaştırmak için de eksi işaretli düğmeye hızla tıklayın; bitişik haritalar için yeşil okları kullanın.


METAR-TAF: